Flight Track Log - Related Links

Times and Time Zones

All times are in EDT time to prevent confusion due to time zone crossing. See the JBU33 flight status page for this flight to view local times or setup timezone preferences in your user account.

Time Position Orientation Groundspeed Altitude Reporting Facility
EDT Latitude Longitude Course Direction KTS MPH feet Rate Location/Type
Sun 01:29:30 PM 44.3094 -73.1017 193° South 266 306 6,800  Level Boston Center
Sun 01:30:30 PM 44.2322 -73.1006 179° South 281 323 10,000 2,550 Climbing Boston Center
Sun 01:31:30 PM 44.1508 -73.1403 199° South 298 343 11,900 2,182 Climbing Boston Center
Sun 01:32:42 PM 44.0611 -73.1825 199° South 337 388 14,800 2,545 Climbing Boston Center
Sun 01:33:00 PM 44.0090 -73.3193 194° South  Level FlightAware Approximate
Sun 01:33:42 PM 43.9461 -73.2389 199° South 358 412 17,500  Level Boston Center
Sun 01:34:00 PM 43.9319 -73.3449 193° South  Level FlightAware Approximate
Sun 01:34:42 PM 43.8456 -73.2864 199° South 377 434 19,600  Level Boston Center
Sun 01:35:42 PM 43.7453 -73.3367 200° South 383 441 21,900 1,850 Climbing Boston Center
Sun 01:36:42 PM 43.6386 -73.3839 198° South 394 453 23,300 1,600 Climbing Boston Center
Sun 01:37:42 PM 43.5278 -73.4367 199° South 405 466 25,100 1,650 Climbing Boston Center
Sun 01:38:42 PM 43.4167 -73.4892 199° South 421 484 26,600 1,400 Climbing Boston Center
Sun 01:39:42 PM 43.3017 -73.5414 198° South 428 493 27,900 700 Climbing Boston Center
Sun 01:40:42 PM 43.1822 -73.5961 198° South 433 498 28,000 50 Climbing Boston Center
Sun 01:41:42 PM 43.0669 -73.6564 201° Southwest 444 511 28,000  Level Boston Center
Sun 01:42:42 PM 42.9456 -73.7108 198° South 449 517 28,000  Level Boston Center
Sun 01:43:42 PM 42.8303 -73.7650 199° South 454 522 28,000  Level Boston Center
Sun 01:44:42 PM 42.7069 -73.8075 194° South 449 517 28,000  Level Boston Center
Sun 01:45:42 PM 42.6047 -73.8081 180° South 454 522 28,000  Level Boston Center
Sun 01:46:42 PM 42.4672 -73.8136 182° South 449 517 28,000  Level Boston Center
Sun 01:47:42 PM 42.3442 -73.8164 181° South 449 517 28,000  Level Boston Center
Sun 01:48:42 PM 42.2150 -73.8164 180° South 454 522 28,000  Level Boston Center
Sun 01:49:42 PM 42.0878 -73.8164 180° South 459 528 28,000  Level Boston Center
Sun 01:50:42 PM 41.9622 -73.8472 190° South 459 528 28,000 -716 Level Boston Center
Sun 01:53:03 PM 41.6831 -73.9542 196° South 459 528 25,600 -1,448 Descending New York Center
Sun 01:54:05 PM 41.5631 -73.9983 195° South 434 499 23,100 -2,311 Descending New York Center
Sun 01:55:05 PM 41.4558 -74.0347 194° South 418 481 20,900 -1,550 Descending New York Center
Sun 01:56:05 PM 41.3486 -74.0708 194° South 405 466 20,000 -458 Descending New York Center
Sun 01:57:03 PM 41.2400 -74.0875 187° South 399 459 20,000  Level New York Center
Sun 01:58:03 PM 41.1311 -74.1042 187° South 399 459 20,000  Level New York Center
Sun 01:58:49 PM 41.0333 -74.1167 186° South 391 450 20,000 -566 Level New York TRACON
Sun 01:59:49 PM 40.9333 -74.1333 187° South 380 437 19,000 -750 Descending New York TRACON
Sun 02:00:49 PM 40.8667 -74.0500 137° Southeast 344 396 18,500 -950 Descending New York TRACON
Sun 02:01:49 PM 40.8167 -73.9500 123° Southeast 335 386 17,100 -1,550 Descending New York TRACON
Sun 02:02:49 PM 40.7667 -73.8500 123° Southeast 329 379 15,400 -1,600 Descending New York TRACON
Sun 02:03:49 PM 40.7167 -73.7500 123° Southeast 335 386 13,900 -1,550 Descending New York TRACON
Sun 02:04:49 PM 40.6500 -73.7000 150° Southeast 367 422 12,300 -1,800 Descending New York TRACON
Sun 02:05:49 PM 40.5667 -73.6667 163° South 291 335 10,300 -1,950 Descending New York TRACON
Sun 02:06:49 PM 40.4833 -73.6500 171° South 276 318 8,400 -2,000 Descending New York TRACON
Sun 02:07:49 PM 40.4167 -73.6167 159° South 277 319 6,300 -1,950 Descending New York TRACON
Sun 02:08:49 PM 40.3833 -73.7000 242° Southwest 255 293 4,500 -1,650 Descending New York TRACON
Sun 02:09:49 PM 40.3833 -73.7833 270° West 256 295 3,000 -750 Descending New York TRACON
Sun 02:10:49 PM 40.4167 -73.8667 298° West 260 299 3,000  Level New York TRACON
Sun 02:11:49 PM 40.4500 -73.9333 303° West 213 245 3,000  Level New York TRACON
Sun 02:12:49 PM 40.5000 -73.9667 333° Northwest 209 241 3,000  Level New York TRACON
Sun 02:13:49 PM 40.5500 -73.9500 14° North 216 249 3,000 -211 Level New York TRACON
Sun 02:14:43 PM 40.6000 -73.9167 27° Northeast 215 247 2,600 -700 Descending New York TRACON
Sun 02:15:49 PM 40.6333 -73.8667 49° Northeast 157 181 1,600 -857 Descending New York TRACON
Sun 02:16:49 PM 40.6667 -73.8333 37° Northeast 154 177 800 -800 Descending New York TRACON
Sun 02:18:00 PM 40.6398 -73.7789 69° East  Level Estimated

Login

Don't have an account? Register now (free) for customized features, flight alerts, and more!